sensor_id;sensor_type;location;lat;lon;timestamp;P1;durP1;ratioP1;P2;durP2;ratioP2
43509;SDS011;29105;57.764;40.952;2023-08-30T00:00:46;18.45;;;2.75;;
43509;SDS011;29105;57.764;40.952;2023-08-30T00:03:12;4.43;;;1.48;;
43509;SDS011;29105;57.764;40.952;2023-08-30T00:05:41;2.90;;;1.80;;
43509;SDS011;29105;57.764;40.952;2023-08-30T00:08:10;3.97;;;1.75;;
43509;SDS011;29105;57.764;40.952;2023-08-30T00:10:36;5.30;;;2.13;;
43509;SDS011;29105;57.764;40.952;2023-08-30T00:13:03;5.55;;;2.08;;
43509;SDS011;29105;57.764;40.952;2023-08-30T00:15:29;2.80;;;1.73;;
43509;SDS011;29105;57.764;40.952;2023-08-30T00:17:54;5.45;;;1.75;;
43509;SDS011;29105;57.764;40.952;2023-08-30T00:20:20;6.25;;;1.77;;
43509;SDS011;29105;57.764;40.952;2023-08-30T00:22:47;4.13;;;1.75;;
43509;SDS011;29105;57.764;40.952;2023-08-30T00:25:13;2.95;;;1.75;;
43509;SDS011;29105;57.764;40.952;2023-08-30T00:27:39;3.38;;;1.67;;
43509;SDS011;29105;57.764;40.952;2023-08-30T00:30:05;5.95;;;2.25;;
43509;SDS011;29105;57.764;40.952;2023-08-30T00:32:33;4.15;;;1.60;;
43509;SDS011;29105;57.764;40.952;2023-08-30T00:34:59;2.88;;;1.65;;
43509;SDS011;29105;57.764;40.952;2023-08-30T00:37:24;5.00;;;2.72;;
43509;SDS011;29105;57.764;40.952;2023-08-30T00:39:50;3.25;;;1.75;;
43509;SDS011;29105;57.764;40.952;2023-08-30T00:42:16;5.88;;;1.98;;
43509;SDS011;29105;57.764;40.952;2023-08-30T00:44:41;4.60;;;2.15;;
43509;SDS011;29105;57.764;40.952;2023-08-30T00:47:07;2.92;;;1.23;;
43509;SDS011;29105;57.764;40.952;2023-08-30T00:49:33;4.32;;;2.17;;
43509;SDS011;29105;57.764;40.952;2023-08-30T00:52:00;4.68;;;1.48;;
43509;SDS011;29105;57.764;40.952;2023-08-30T00:54:27;5.35;;;1.88;;
43509;SDS011;29105;57.764;40.952;2023-08-30T00:56:54;4.93;;;1.95;;
43509;SDS011;29105;57.764;40.952;2023-08-30T00:59:19;2.35;;;1.52;;
43509;SDS011;29105;57.764;40.952;2023-08-30T01:01:45;3.60;;;1.83;;
43509;SDS011;29105;57.764;40.952;2023-08-30T01:04:11;6.10;;;1.65;;
43509;SDS011;29105;57.764;40.952;2023-08-30T01:06:37;8.25;;;1.98;;
43509;SDS011;29105;57.764;40.952;2023-08-30T01:09:03;3.75;;;1.40;;
43509;SDS011;29105;57.764;40.952;2023-08-30T01:11:32;3.05;;;1.42;;
43509;SDS011;29105;57.764;40.952;2023-08-30T01:16:30;2.78;;;1.45;;
43509;SDS011;29105;57.764;40.952;2023-08-30T01:18:56;3.28;;;1.88;;
43509;SDS011;29105;57.764;40.952;2023-08-30T01:24:03;3.35;;;1.75;;
43509;SDS011;29105;57.764;40.952;2023-08-30T01:26:37;3.50;;;1.60;;
43509;SDS011;29105;57.764;40.952;2023-08-30T01:29:07;3.38;;;2.00;;
43509;SDS011;29105;57.764;40.952;2023-08-30T01:31:34;5.68;;;1.45;;
43509;SDS011;29105;57.764;40.952;2023-08-30T01:34:04;2.70;;;1.45;;
43509;SDS011;29105;57.764;40.952;2023-08-30T01:36:30;3.65;;;1.52;;
43509;SDS011;29105;57.764;40.952;2023-08-30T01:38:57;3.00;;;1.17;;
43509;SDS011;29105;57.764;40.952;2023-08-30T01:41:25;5.57;;;1.38;;
43509;SDS011;29105;57.764;40.952;2023-08-30T01:43:52;4.18;;;1.52;;
43509;SDS011;29105;57.764;40.952;2023-08-30T01:46:18;2.92;;;1.40;;
43509;SDS011;29105;57.764;40.952;2023-08-30T01:48:46;2.80;;;1.60;;
43509;SDS011;29105;57.764;40.952;2023-08-30T01:51:13;3.63;;;1.73;;
43509;SDS011;29105;57.764;40.952;2023-08-30T01:53:40;6.25;;;1.75;;
43509;SDS011;29105;57.764;40.952;2023-08-30T01:56:05;2.42;;;1.75;;
43509;SDS011;29105;57.764;40.952;2023-08-30T01:58:31;4.93;;;2.17;;
43509;SDS011;29105;57.764;40.952;2023-08-30T02:00:57;3.42;;;1.65;;
43509;SDS011;29105;57.764;40.952;2023-08-30T02:03:23;4.70;;;2.10;;
43509;SDS011;29105;57.764;40.952;2023-08-30T02:08:23;8.30;;;2.00;;
43509;SDS011;29105;57.764;40.952;2023-08-30T02:10:54;8.07;;;1.83;;
43509;SDS011;29105;57.764;40.952;2023-08-30T02:13:41;3.67;;;2.00;;
43509;SDS011;29105;57.764;40.952;2023-08-30T02:16:08;3.92;;;1.98;;
43509;SDS011;29105;57.764;40.952;2023-08-30T02:18:34;2.78;;;1.85;;
43509;SDS011;29105;57.764;40.952;2023-08-30T02:21:01;7.18;;;1.98;;
43509;SDS011;29105;57.764;40.952;2023-08-30T02:23:26;2.45;;;1.77;;
43509;SDS011;29105;57.764;40.952;2023-08-30T02:25:53;12.63;;;2.33;;
43509;SDS011;29105;57.764;40.952;2023-08-30T02:28:19;6.85;;;1.92;;
43509;SDS011;29105;57.764;40.952;2023-08-30T02:30:45;5.53;;;1.90;;
43509;SDS011;29105;57.764;40.952;2023-08-30T02:33:11;4.68;;;1.85;;
43509;SDS011;29105;57.764;40.952;2023-08-30T02:35:36;7.65;;;2.15;;
43509;SDS011;29105;57.764;40.952;2023-08-30T02:38:02;3.70;;;2.00;;
43509;SDS011;29105;57.764;40.952;2023-08-30T02:40:30;3.72;;;2.13;;
43509;SDS011;29105;57.764;40.952;2023-08-30T02:42:57;4.05;;;2.70;;
43509;SDS011;29105;57.764;40.952;2023-08-30T02:45:22;7.60;;;2.20;;
43509;SDS011;29105;57.764;40.952;2023-08-30T02:47:48;6.43;;;2.17;;
43509;SDS011;29105;57.764;40.952;2023-08-30T02:50:14;6.53;;;2.20;;
43509;SDS011;29105;57.764;40.952;2023-08-30T02:52:39;10.30;;;2.15;;
43509;SDS011;29105;57.764;40.952;2023-08-30T02:55:05;7.28;;;2.00;;
43509;SDS011;29105;57.764;40.952;2023-08-30T02:57:31;3.65;;;1.90;;
43509;SDS011;29105;57.764;40.952;2023-08-30T02:59:57;3.47;;;1.60;;
43509;SDS011;29105;57.764;40.952;2023-08-30T03:02:23;4.00;;;1.60;;
43509;SDS011;29105;57.764;40.952;2023-08-30T03:04:48;3.55;;;1.63;;
43509;SDS011;29105;57.764;40.952;2023-08-30T03:07:14;5.25;;;2.53;;
43509;SDS011;29105;57.764;40.952;2023-08-30T03:09:40;4.05;;;2.25;;
43509;SDS011;29105;57.764;40.952;2023-08-30T03:12:06;5.07;;;2.25;;
43509;SDS011;29105;57.764;40.952;2023-08-30T03:14:32;5.35;;;2.50;;
43509;SDS011;29105;57.764;40.952;2023-08-30T03:16:57;5.45;;;2.78;;
43509;SDS011;29105;57.764;40.952;2023-08-30T03:19:26;8.02;;;2.60;;
43509;SDS011;29105;57.764;40.952;2023-08-30T03:21:51;6.97;;;2.70;;
43509;SDS011;29105;57.764;40.952;2023-08-30T03:24:17;6.82;;;2.05;;
43509;SDS011;29105;57.764;40.952;2023-08-30T03:26:43;6.88;;;2.13;;
43509;SDS011;29105;57.764;40.952;2023-08-30T03:29:09;7.07;;;2.53;;
43509;SDS011;29105;57.764;40.952;2023-08-30T03:31:34;9.50;;;3.03;;
43509;SDS011;29105;57.764;40.952;2023-08-30T03:34:00;5.57;;;2.30;;
43509;SDS011;29105;57.764;40.952;2023-08-30T03:36:26;10.10;;;2.70;;
43509;SDS011;29105;57.764;40.952;2023-08-30T03:38:51;7.50;;;2.72;;
43509;SDS011;29105;57.764;40.952;2023-08-30T03:41:17;7.72;;;2.72;;
43509;SDS011;29105;57.764;40.952;2023-08-30T03:43:43;4.15;;;2.40;;
43509;SDS011;29105;57.764;40.952;2023-08-30T03:46:08;8.73;;;2.72;;
43509;SDS011;29105;57.764;40.952;2023-08-30T03:48:37;5.63;;;2.65;;
43509;SDS011;29105;57.764;40.952;2023-08-30T03:51:03;4.10;;;2.63;;
43509;SDS011;29105;57.764;40.952;2023-08-30T03:53:28;5.93;;;2.47;;
43509;SDS011;29105;57.764;40.952;2023-08-30T03:55:55;7.60;;;2.85;;
43509;SDS011;29105;57.764;40.952;2023-08-30T03:58:21;7.35;;;3.53;;
43509;SDS011;29105;57.764;40.952;2023-08-30T04:00:47;6.65;;;2.55;;
43509;SDS011;29105;57.764;40.952;2023-08-30T04:03:13;7.78;;;3.00;;
43509;SDS011;29105;57.764;40.952;2023-08-30T04:05:40;7.32;;;3.03;;
43509;SDS011;29105;57.764;40.952;2023-08-30T04:08:07;4.68;;;2.40;;
43509;SDS011;29105;57.764;40.952;2023-08-30T04:10:39;10.30;;;2.38;;
43509;SDS011;29105;57.764;40.952;2023-08-30T04:13:06;8.27;;;3.33;;
43509;SDS011;29105;57.764;40.952;2023-08-30T04:15:34;15.27;;;3.85;;
43509;SDS011;29105;57.764;40.952;2023-08-30T04:18:00;7.20;;;3.05;;
43509;SDS011;29105;57.764;40.952;2023-08-30T04:20:26;14.48;;;3.40;;
43509;SDS011;29105;57.764;40.952;2023-08-30T04:22:52;9.77;;;3.35;;
43509;SDS011;29105;57.764;40.952;2023-08-30T04:25:20;11.68;;;3.10;;
43509;SDS011;29105;57.764;40.952;2023-08-30T04:27:45;4.80;;;3.28;;
43509;SDS011;29105;57.764;40.952;2023-08-30T04:30:11;8.45;;;2.88;;
43509;SDS011;29105;57.764;40.952;2023-08-30T04:32:37;8.65;;;3.10;;
43509;SDS011;29105;57.764;40.952;2023-08-30T04:35:03;8.55;;;2.67;;
43509;SDS011;29105;57.764;40.952;2023-08-30T04:37:32;8.73;;;2.92;;
43509;SDS011;29105;57.764;40.952;2023-08-30T04:39:58;7.00;;;3.00;;
43509;SDS011;29105;57.764;40.952;2023-08-30T04:42:24;8.95;;;3.65;;
43509;SDS011;29105;57.764;40.952;2023-08-30T04:44:50;13.65;;;3.33;;
43509;SDS011;29105;57.764;40.952;2023-08-30T04:47:16;10.23;;;2.80;;
43509;SDS011;29105;57.764;40.952;2023-08-30T04:49:42;10.02;;;3.65;;
43509;SDS011;29105;57.764;40.952;2023-08-30T04:52:08;5.93;;;2.55;;
43509;SDS011;29105;57.764;40.952;2023-08-30T04:54:33;11.95;;;3.35;;
43509;SDS011;29105;57.764;40.952;2023-08-30T04:56:59;15.98;;;3.97;;
43509;SDS011;29105;57.764;40.952;2023-08-30T04:59:25;4.50;;;2.65;;
43509;SDS011;29105;57.764;40.952;2023-08-30T05:01:50;3.30;;;2.45;;
43509;SDS011;29105;57.764;40.952;2023-08-30T05:04:17;5.35;;;2.50;;
43509;SDS011;29105;57.764;40.952;2023-08-30T05:06:43;6.20;;;2.30;;
43509;SDS011;29105;57.764;40.952;2023-08-30T05:09:09;5.40;;;2.72;;
43509;SDS011;29105;57.764;40.952;2023-08-30T05:11:35;6.15;;;2.63;;
43509;SDS011;29105;57.764;40.952;2023-08-30T05:14:00;5.05;;;2.53;;
43509;SDS011;29105;57.764;40.952;2023-08-30T05:16:26;8.07;;;3.20;;
43509;SDS011;29105;57.764;40.952;2023-08-30T05:18:52;9.57;;;2.97;;
43509;SDS011;29105;57.764;40.952;2023-08-30T05:21:17;6.93;;;3.50;;
43509;SDS011;29105;57.764;40.952;2023-08-30T05:23:43;5.97;;;2.50;;
43509;SDS011;29105;57.764;40.952;2023-08-30T05:26:10;17.05;;;3.38;;
43509;SDS011;29105;57.764;40.952;2023-08-30T05:28:37;6.93;;;2.47;;
43509;SDS011;29105;57.764;40.952;2023-08-30T05:31:04;8.00;;;3.15;;
43509;SDS011;29105;57.764;40.952;2023-08-30T05:33:29;9.35;;;2.83;;
43509;SDS011;29105;57.764;40.952;2023-08-30T05:35:55;8.40;;;2.60;;
43509;SDS011;29105;57.764;40.952;2023-08-30T05:38:21;6.25;;;3.10;;
43509;SDS011;29105;57.764;40.952;2023-08-30T05:40:47;11.60;;;3.20;;
43509;SDS011;29105;57.764;40.952;2023-08-30T05:43:12;9.02;;;3.17;;
43509;SDS011;29105;57.764;40.952;2023-08-30T05:45:38;11.98;;;3.33;;
43509;SDS011;29105;57.764;40.952;2023-08-30T05:48:05;10.43;;;4.93;;
43509;SDS011;29105;57.764;40.952;2023-08-30T05:50:31;10.95;;;4.85;;
43509;SDS011;29105;57.764;40.952;2023-08-30T05:52:56;10.07;;;4.90;;
43509;SDS011;29105;57.764;40.952;2023-08-30T05:55:24;10.00;;;5.53;;
43509;SDS011;29105;57.764;40.952;2023-08-30T05:58:08;14.45;;;5.15;;
43509;SDS011;29105;57.764;40.952;2023-08-30T06:00:34;14.73;;;5.43;;
43509;SDS011;29105;57.764;40.952;2023-08-30T06:02:59;10.65;;;4.53;;
43509;SDS011;29105;57.764;40.952;2023-08-30T06:05:25;12.95;;;4.40;;
43509;SDS011;29105;57.764;40.952;2023-08-30T06:07:51;15.65;;;5.80;;
43509;SDS011;29105;57.764;40.952;2023-08-30T06:10:18;21.77;;;6.00;;
43509;SDS011;29105;57.764;40.952;2023-08-30T06:12:45;12.57;;;4.88;;
43509;SDS011;29105;57.764;40.952;2023-08-30T06:15:10;11.77;;;4.53;;
43509;SDS011;29105;57.764;40.952;2023-08-30T06:17:36;13.05;;;4.70;;
43509;SDS011;29105;57.764;40.952;2023-08-30T06:20:01;10.18;;;4.03;;
43509;SDS011;29105;57.764;40.952;2023-08-30T06:22:30;11.85;;;4.45;;
43509;SDS011;29105;57.764;40.952;2023-08-30T06:24:55;12.98;;;4.50;;
43509;SDS011;29105;57.764;40.952;2023-08-30T06:27:22;8.85;;;4.63;;
43509;SDS011;29105;57.764;40.952;2023-08-30T06:29:48;8.15;;;3.65;;
43509;SDS011;29105;57.764;40.952;2023-08-30T06:32:14;13.30;;;3.30;;
43509;SDS011;29105;57.764;40.952;2023-08-30T06:34:40;6.68;;;4.13;;
43509;SDS011;29105;57.764;40.952;2023-08-30T06:37:05;8.25;;;3.70;;
43509;SDS011;29105;57.764;40.952;2023-08-30T06:39:34;9.38;;;3.78;;
43509;SDS011;29105;57.764;40.952;2023-08-30T06:42:00;16.08;;;5.18;;
43509;SDS011;29105;57.764;40.952;2023-08-30T06:44:27;9.80;;;3.13;;
43509;SDS011;29105;57.764;40.952;2023-08-30T06:46:56;12.50;;;3.30;;
43509;SDS011;29105;57.764;40.952;2023-08-30T06:49:24;9.18;;;3.20;;
43509;SDS011;29105;57.764;40.952;2023-08-30T06:51:50;11.05;;;3.15;;
43509;SDS011;29105;57.764;40.952;2023-08-30T06:54:16;8.82;;;2.97;;
43509;SDS011;29105;57.764;40.952;2023-08-30T06:56:45;5.13;;;3.17;;
43509;SDS011;29105;57.764;40.952;2023-08-30T06:59:22;13.05;;;3.40;;
43509;SDS011;29105;57.764;40.952;2023-08-30T07:01:47;9.00;;;3.20;;
43509;SDS011;29105;57.764;40.952;2023-08-30T07:04:13;7.28;;;2.42;;
43509;SDS011;29105;57.764;40.952;2023-08-30T07:06:38;9.68;;;3.25;;
43509;SDS011;29105;57.764;40.952;2023-08-30T07:09:04;6.63;;;2.88;;
43509;SDS011;29105;57.764;40.952;2023-08-30T07:11:31;4.70;;;2.58;;
43509;SDS011;29105;57.764;40.952;2023-08-30T07:13:57;8.48;;;2.75;;
43509;SDS011;29105;57.764;40.952;2023-08-30T07:16:22;12.68;;;3.35;;
43509;SDS011;29105;57.764;40.952;2023-08-30T07:18:48;5.47;;;2.92;;
43509;SDS011;29105;57.764;40.952;2023-08-30T07:21:14;6.78;;;2.40;;
43509;SDS011;29105;57.764;40.952;2023-08-30T07:23:39;6.22;;;2.85;;
43509;SDS011;29105;57.764;40.952;2023-08-30T07:26:05;6.78;;;2.33;;
43509;SDS011;29105;57.764;40.952;2023-08-30T07:28:30;9.18;;;3.25;;
43509;SDS011;29105;57.764;40.952;2023-08-30T07:31:03;9.60;;;2.67;;
43509;SDS011;29105;57.764;40.952;2023-08-30T07:33:29;5.53;;;3.05;;
43509;SDS011;29105;57.764;40.952;2023-08-30T07:35:54;6.18;;;2.70;;
43509;SDS011;29105;57.764;40.952;2023-08-30T07:38:20;5.03;;;2.60;;
43509;SDS011;29105;57.764;40.952;2023-08-30T07:40:46;5.05;;;3.05;;
43509;SDS011;29105;57.764;40.952;2023-08-30T07:43:11;7.25;;;3.35;;
43509;SDS011;29105;57.764;40.952;2023-08-30T07:45:37;8.15;;;3.08;;
43509;SDS011;29105;57.764;40.952;2023-08-30T07:48:03;11.38;;;3.55;;
43509;SDS011;29105;57.764;40.952;2023-08-30T07:50:28;10.10;;;3.83;;
43509;SDS011;29105;57.764;40.952;2023-08-30T07:52:54;7.60;;;3.03;;
43509;SDS011;29105;57.764;40.952;2023-08-30T07:55:20;10.50;;;3.83;;
43509;SDS011;29105;57.764;40.952;2023-08-30T07:57:45;9.40;;;3.10;;
43509;SDS011;29105;57.764;40.952;2023-08-30T08:00:11;6.35;;;3.35;;
43509;SDS011;29105;57.764;40.952;2023-08-30T08:02:39;7.30;;;2.88;;
43509;SDS011;29105;57.764;40.952;2023-08-30T08:05:05;12.82;;;3.17;;
43509;SDS011;29105;57.764;40.952;2023-08-30T08:07:31;6.43;;;2.50;;
43509;SDS011;29105;57.764;40.952;2023-08-30T08:09:59;6.70;;;4.03;;
43509;SDS011;29105;57.764;40.952;2023-08-30T08:12:26;11.05;;;4.28;;
43509;SDS011;29105;57.764;40.952;2023-08-30T08:14:52;8.13;;;3.92;;
43509;SDS011;29105;57.764;40.952;2023-08-30T08:17:18;7.85;;;4.15;;
43509;SDS011;29105;57.764;40.952;2023-08-30T08:19:43;10.73;;;3.42;;
43509;SDS011;29105;57.764;40.952;2023-08-30T08:22:09;13.45;;;3.88;;
43509;SDS011;29105;57.764;40.952;2023-08-30T08:24:35;14.75;;;4.30;;
43509;SDS011;29105;57.764;40.952;2023-08-30T08:27:01;15.68;;;4.72;;
43509;SDS011;29105;57.764;40.952;2023-08-30T08:29:27;8.95;;;3.83;;
43509;SDS011;29105;57.764;40.952;2023-08-30T08:31:53;9.55;;;3.65;;
43509;SDS011;29105;57.764;40.952;2023-08-30T08:34:19;13.32;;;3.70;;
43509;SDS011;29105;57.764;40.952;2023-08-30T08:36:45;14.55;;;5.53;;
43509;SDS011;29105;57.764;40.952;2023-08-30T08:39:10;10.55;;;5.15;;
43509;SDS011;29105;57.764;40.952;2023-08-30T08:44:07;11.07;;;3.85;;
43509;SDS011;29105;57.764;40.952;2023-08-30T08:46:36;15.40;;;4.47;;
43509;SDS011;29105;57.764;40.952;2023-08-30T08:49:07;7.17;;;3.70;;
43509;SDS011;29105;57.764;40.952;2023-08-30T08:51:35;10.83;;;4.00;;
43509;SDS011;29105;57.764;40.952;2023-08-30T08:54:02;9.25;;;4.75;;
43509;SDS011;29105;57.764;40.952;2023-08-30T08:56:31;13.65;;;5.43;;
43509;SDS011;29105;57.764;40.952;2023-08-30T08:58:59;12.27;;;4.07;;
43509;SDS011;29105;57.764;40.952;2023-08-30T09:01:26;7.82;;;4.22;;
43509;SDS011;29105;57.764;40.952;2023-08-30T09:03:52;8.23;;;4.22;;
43509;SDS011;29105;57.764;40.952;2023-08-30T09:06:18;12.75;;;4.43;;
43509;SDS011;29105;57.764;40.952;2023-08-30T09:08:46;8.85;;;3.35;;
43509;SDS011;29105;57.764;40.952;2023-08-30T09:11:12;10.38;;;4.30;;
43509;SDS011;29105;57.764;40.952;2023-08-30T09:13:38;12.73;;;4.63;;
43509;SDS011;29105;57.764;40.952;2023-08-30T09:16:11;10.38;;;4.20;;
43509;SDS011;29105;57.764;40.952;2023-08-30T09:18:42;8.10;;;4.63;;
43509;SDS011;29105;57.764;40.952;2023-08-30T09:21:08;9.60;;;4.50;;
43509;SDS011;29105;57.764;40.952;2023-08-30T09:23:35;15.88;;;5.18;;
43509;SDS011;29105;57.764;40.952;2023-08-30T09:26:01;17.17;;;4.63;;
43509;SDS011;29105;57.764;40.952;2023-08-30T09:28:28;6.18;;;4.22;;
43509;SDS011;29105;57.764;40.952;2023-08-30T09:30:54;10.20;;;4.35;;
43509;SDS011;29105;57.764;40.952;2023-08-30T09:33:20;9.07;;;4.30;;
43509;SDS011;29105;57.764;40.952;2023-08-30T09:35:47;9.73;;;3.65;;
43509;SDS011;29105;57.764;40.952;2023-08-30T09:38:18;14.93;;;4.40;;
43509;SDS011;29105;57.764;40.952;2023-08-30T09:43:11;7.05;;;3.95;;
43509;SDS011;29105;57.764;40.952;2023-08-30T09:45:37;14.13;;;4.53;;
43509;SDS011;29105;57.764;40.952;2023-08-30T09:48:03;7.55;;;4.20;;
43509;SDS011;29105;57.764;40.952;2023-08-30T09:50:31;10.55;;;4.57;;
43509;SDS011;29105;57.764;40.952;2023-08-30T09:53:00;12.18;;;4.78;;
43509;SDS011;29105;57.764;40.952;2023-08-30T09:55:28;21.40;;;5.32;;
43509;SDS011;29105;57.764;40.952;2023-08-30T09:57:54;11.73;;;3.70;;
43509;SDS011;29105;57.764;40.952;2023-08-30T10:00:20;6.68;;;3.08;;
43509;SDS011;29105;57.764;40.952;2023-08-30T10:02:46;10.68;;;3.33;;
43509;SDS011;29105;57.764;40.952;2023-08-30T10:05:12;7.07;;;3.53;;
43509;SDS011;29105;57.764;40.952;2023-08-30T10:07:39;6.60;;;3.78;;
43509;SDS011;29105;57.764;40.952;2023-08-30T10:10:06;10.90;;;3.50;;
43509;SDS011;29105;57.764;40.952;2023-08-30T10:12:32;5.90;;;3.70;;
43509;SDS011;29105;57.764;40.952;2023-08-30T10:14:58;10.75;;;4.22;;
43509;SDS011;29105;57.764;40.952;2023-08-30T10:17:28;9.43;;;4.40;;
43509;SDS011;29105;57.764;40.952;2023-08-30T10:19:56;10.85;;;4.25;;
43509;SDS011;29105;57.764;40.952;2023-08-30T10:22:22;9.93;;;4.22;;
43509;SDS011;29105;57.764;40.952;2023-08-30T10:25:06;10.75;;;4.40;;
43509;SDS011;29105;57.764;40.952;2023-08-30T10:27:34;13.18;;;4.78;;
43509;SDS011;29105;57.764;40.952;2023-08-30T10:30:01;10.15;;;4.35;;
43509;SDS011;29105;57.764;40.952;2023-08-30T10:32:30;9.10;;;4.05;;
43509;SDS011;29105;57.764;40.952;2023-08-30T10:35:00;5.72;;;3.60;;
43509;SDS011;29105;57.764;40.952;2023-08-30T10:37:27;16.50;;;4.97;;
43509;SDS011;29105;57.764;40.952;2023-08-30T10:39:53;10.50;;;4.35;;
43509;SDS011;29105;57.764;40.952;2023-08-30T10:42:25;9.30;;;4.50;;
43509;SDS011;29105;57.764;40.952;2023-08-30T10:44:56;5.80;;;3.90;;
43509;SDS011;29105;57.764;40.952;2023-08-30T10:47:26;6.80;;;4.35;;
43509;SDS011;29105;57.764;40.952;2023-08-30T10:49:58;11.57;;;4.72;;
43509;SDS011;29105;57.764;40.952;2023-08-30T10:52:29;11.70;;;4.95;;
43509;SDS011;29105;57.764;40.952;2023-08-30T10:55:08;8.43;;;3.70;;
43509;SDS011;29105;57.764;40.952;2023-08-30T10:57:35;8.70;;;3.72;;
43509;SDS011;29105;57.764;40.952;2023-08-30T11:00:05;6.60;;;3.47;;
43509;SDS011;29105;57.764;40.952;2023-08-30T11:02:33;5.38;;;3.33;;
43509;SDS011;29105;57.764;40.952;2023-08-30T11:04:59;11.05;;;4.07;;
43509;SDS011;29105;57.764;40.952;2023-08-30T11:07:25;8.32;;;3.85;;
43509;SDS011;29105;57.764;40.952;2023-08-30T11:09:53;9.20;;;3.75;;
43509;SDS011;29105;57.764;40.952;2023-08-30T11:12:19;8.65;;;3.88;;
43509;SDS011;29105;57.764;40.952;2023-08-30T11:14:48;12.48;;;5.22;;
43509;SDS011;29105;57.764;40.952;2023-08-30T11:17:17;10.93;;;4.25;;
43509;SDS011;29105;57.764;40.952;2023-08-30T11:19:42;8.15;;;3.55;;
43509;SDS011;29105;57.764;40.952;2023-08-30T11:22:08;7.97;;;4.00;;
43509;SDS011;29105;57.764;40.952;2023-08-30T11:24:34;6.55;;;2.75;;
43509;SDS011;29105;57.764;40.952;2023-08-30T11:27:00;6.00;;;3.15;;
43509;SDS011;29105;57.764;40.952;2023-08-30T11:29:26;6.45;;;3.40;;
43509;SDS011;29105;57.764;40.952;2023-08-30T11:31:52;4.85;;;2.92;;
43509;SDS011;29105;57.764;40.952;2023-08-30T11:34:20;4.53;;;2.42;;
43509;SDS011;29105;57.764;40.952;2023-08-30T11:36:47;5.65;;;3.63;;
43509;SDS011;29105;57.764;40.952;2023-08-30T11:39:13;7.47;;;3.65;;
43509;SDS011;29105;57.764;40.952;2023-08-30T11:41:39;7.97;;;2.42;;
43509;SDS011;29105;57.764;40.952;2023-08-30T11:44:06;7.60;;;3.30;;
43509;SDS011;29105;57.764;40.952;2023-08-30T11:46:31;5.10;;;2.83;;
43509;SDS011;29105;57.764;40.952;2023-08-30T11:48:57;3.78;;;2.08;;
43509;SDS011;29105;57.764;40.952;2023-08-30T11:51:23;6.72;;;2.33;;
43509;SDS011;29105;57.764;40.952;2023-08-30T11:53:49;3.80;;;2.40;;
43509;SDS011;29105;57.764;40.952;2023-08-30T11:56:14;6.53;;;2.60;;
43509;SDS011;29105;57.764;40.952;2023-08-30T11:58:41;5.93;;;2.67;;
43509;SDS011;29105;57.764;40.952;2023-08-30T12:01:07;5.63;;;2.55;;
43509;SDS011;29105;57.764;40.952;2023-08-30T12:03:33;5.15;;;2.80;;
43509;SDS011;29105;57.764;40.952;2023-08-30T12:05:59;4.03;;;2.40;;
43509;SDS011;29105;57.764;40.952;2023-08-30T12:08:28;4.93;;;2.42;;
43509;SDS011;29105;57.764;40.952;2023-08-30T12:10:55;5.28;;;2.65;;
43509;SDS011;29105;57.764;40.952;2023-08-30T12:13:28;5.93;;;2.75;;
43509;SDS011;29105;57.764;40.952;2023-08-30T12:15:55;3.03;;;2.25;;
43509;SDS011;29105;57.764;40.952;2023-08-30T12:20:55;4.68;;;2.70;;
43509;SDS011;29105;57.764;40.952;2023-08-30T12:23:23;4.55;;;2.55;;
43509;SDS011;29105;57.764;40.952;2023-08-30T12:26:08;3.17;;;2.17;;
43509;SDS011;29105;57.764;40.952;2023-08-30T12:28:35;4.43;;;2.60;;
43509;SDS011;29105;57.764;40.952;2023-08-30T12:31:02;4.90;;;2.33;;
43509;SDS011;29105;57.764;40.952;2023-08-30T12:33:32;3.97;;;2.67;;
43509;SDS011;29105;57.764;40.952;2023-08-30T12:35:59;4.10;;;2.53;;
43509;SDS011;29105;57.764;40.952;2023-08-30T12:38:24;5.00;;;2.47;;
43509;SDS011;29105;57.764;40.952;2023-08-30T12:40:51;4.20;;;2.20;;
43509;SDS011;29105;57.764;40.952;2023-08-30T12:43:18;2.75;;;1.60;;
43509;SDS011;29105;57.764;40.952;2023-08-30T12:45:45;3.00;;;1.63;;
43509;SDS011;29105;57.764;40.952;2023-08-30T12:48:11;4.65;;;2.03;;
43509;SDS011;29105;57.764;40.952;2023-08-30T12:50:39;4.75;;;2.75;;
43509;SDS011;29105;57.764;40.952;2023-08-30T12:53:05;7.70;;;4.18;;
43509;SDS011;29105;57.764;40.952;2023-08-30T12:55:32;6.75;;;3.28;;
43509;SDS011;29105;57.764;40.952;2023-08-30T12:57:59;6.32;;;3.00;;
43509;SDS011;29105;57.764;40.952;2023-08-30T13:00:26;4.50;;;2.22;;
43509;SDS011;29105;57.764;40.952;2023-08-30T13:02:52;4.68;;;2.92;;
43509;SDS011;29105;57.764;40.952;2023-08-30T13:05:17;5.32;;;2.22;;
43509;SDS011;29105;57.764;40.952;2023-08-30T13:07:43;4.28;;;2.40;;
43509;SDS011;29105;57.764;40.952;2023-08-30T13:10:09;2.78;;;1.85;;
43509;SDS011;29105;57.764;40.952;2023-08-30T13:12:35;5.10;;;2.75;;
43509;SDS011;29105;57.764;40.952;2023-08-30T13:15:02;2.45;;;1.77;;
43509;SDS011;29105;57.764;40.952;2023-08-30T13:17:32;3.75;;;1.95;;
43509;SDS011;29105;57.764;40.952;2023-08-30T13:19:57;3.67;;;2.25;;
43509;SDS011;29105;57.764;40.952;2023-08-30T13:22:24;3.58;;;2.30;;
43509;SDS011;29105;57.764;40.952;2023-08-30T13:24:50;3.78;;;2.40;;
43509;SDS011;29105;57.764;40.952;2023-08-30T13:27:16;3.53;;;2.45;;
43509;SDS011;29105;57.764;40.952;2023-08-30T13:29:41;5.65;;;2.40;;
43509;SDS011;29105;57.764;40.952;2023-08-30T13:32:07;4.47;;;2.63;;
43509;SDS011;29105;57.764;40.952;2023-08-30T13:34:33;5.22;;;2.58;;
43509;SDS011;29105;57.764;40.952;2023-08-30T13:36:58;4.70;;;2.38;;
43509;SDS011;29105;57.764;40.952;2023-08-30T13:39:24;3.58;;;1.77;;
43509;SDS011;29105;57.764;40.952;2023-08-30T13:41:50;4.57;;;2.40;;
43509;SDS011;29105;57.764;40.952;2023-08-30T13:44:15;2.45;;;1.95;;
43509;SDS011;29105;57.764;40.952;2023-08-30T13:46:41;4.95;;;2.70;;
43509;SDS011;29105;57.764;40.952;2023-08-30T13:49:08;4.25;;;2.00;;
43509;SDS011;29105;57.764;40.952;2023-08-30T13:51:34;6.00;;;2.20;;
43509;SDS011;29105;57.764;40.952;2023-08-30T13:53:59;4.47;;;2.25;;
43509;SDS011;29105;57.764;40.952;2023-08-30T13:56:25;5.15;;;2.42;;
43509;SDS011;29105;57.764;40.952;2023-08-30T13:58:51;4.70;;;2.40;;
43509;SDS011;29105;57.764;40.952;2023-08-30T14:01:17;5.10;;;2.78;;
43509;SDS011;29105;57.764;40.952;2023-08-30T14:03:43;3.75;;;2.65;;
43509;SDS011;29105;57.764;40.952;2023-08-30T14:06:09;2.88;;;2.35;;
43509;SDS011;29105;57.764;40.952;2023-08-30T14:08:35;4.40;;;2.90;;
43509;SDS011;29105;57.764;40.952;2023-08-30T14:11:01;7.97;;;2.67;;
43509;SDS011;29105;57.764;40.952;2023-08-30T14:13:26;5.75;;;2.60;;
43509;SDS011;29105;57.764;40.952;2023-08-30T14:15:59;4.93;;;2.80;;
43509;SDS011;29105;57.764;40.952;2023-08-30T14:18:26;6.05;;;2.33;;
43509;SDS011;29105;57.764;40.952;2023-08-30T14:20:54;9.45;;;2.97;;
43509;SDS011;29105;57.764;40.952;2023-08-30T14:23:21;5.63;;;2.70;;
43509;SDS011;29105;57.764;40.952;2023-08-30T14:25:54;5.45;;;2.75;;
43509;SDS011;29105;57.764;40.952;2023-08-30T14:28:23;9.25;;;2.88;;
43509;SDS011;29105;57.764;40.952;2023-08-30T14:30:50;5.82;;;2.90;;
43509;SDS011;29105;57.764;40.952;2023-08-30T14:33:15;4.65;;;3.25;;
43509;SDS011;29105;57.764;40.952;2023-08-30T14:35:41;6.03;;;2.60;;
43509;SDS011;29105;57.764;40.952;2023-08-30T14:38:07;4.75;;;2.75;;
43509;SDS011;29105;57.764;40.952;2023-08-30T14:40:33;9.20;;;4.10;;
43509;SDS011;29105;57.764;40.952;2023-08-30T14:42:59;4.80;;;2.95;;